sensor_id;sensor_type;location;lat;lon;timestamp;P1;durP1;ratioP1;P2;durP2;ratioP2
29720;SDS011;23665;51.044;3.748;2022-10-14T00:02:03;22.37;;;16.50;;
29720;SDS011;23665;51.044;3.748;2022-10-14T00:04:29;23.53;;;17.23;;
29720;SDS011;23665;51.044;3.748;2022-10-14T00:06:55;26.07;;;17.40;;
29720;SDS011;23665;51.044;3.748;2022-10-14T00:09:21;25.33;;;17.77;;
29720;SDS011;23665;51.044;3.748;2022-10-14T00:11:48;24.83;;;18.07;;
29720;SDS011;23665;51.044;3.748;2022-10-14T00:14:15;25.93;;;18.97;;
29720;SDS011;23665;51.044;3.748;2022-10-14T00:16:43;25.10;;;18.37;;
29720;SDS011;23665;51.044;3.748;2022-10-14T00:19:11;26.40;;;18.60;;
29720;SDS011;23665;51.044;3.748;2022-10-14T00:21:38;28.37;;;18.93;;
29720;SDS011;23665;51.044;3.748;2022-10-14T00:24:07;27.33;;;19.43;;
29720;SDS011;23665;51.044;3.748;2022-10-14T00:26:35;23.40;;;17.10;;
29720;SDS011;23665;51.044;3.748;2022-10-14T00:29:03;30.70;;;19.27;;
29720;SDS011;23665;51.044;3.748;2022-10-14T00:31:33;33.17;;;19.87;;
29720;SDS011;23665;51.044;3.748;2022-10-14T00:33:59;31.23;;;20.70;;
29720;SDS011;23665;51.044;3.748;2022-10-14T00:36:25;32.50;;;20.47;;
29720;SDS011;23665;51.044;3.748;2022-10-14T00:38:52;31.97;;;21.47;;
29720;SDS011;23665;51.044;3.748;2022-10-14T00:41:21;33.40;;;21.70;;
29720;SDS011;23665;51.044;3.748;2022-10-14T00:46:24;35.27;;;21.47;;
29720;SDS011;23665;51.044;3.748;2022-10-14T00:48:52;32.53;;;20.97;;
29720;SDS011;23665;51.044;3.748;2022-10-14T00:51:18;32.47;;;21.43;;
29720;SDS011;23665;51.044;3.748;2022-10-14T00:53:45;34.27;;;22.03;;
29720;SDS011;23665;51.044;3.748;2022-10-14T00:56:12;36.53;;;23.30;;
29720;SDS011;23665;51.044;3.748;2022-10-14T00:58:42;34.30;;;23.40;;
29720;SDS011;23665;51.044;3.748;2022-10-14T01:01:09;37.20;;;24.67;;
29720;SDS011;23665;51.044;3.748;2022-10-14T01:03:35;37.60;;;24.03;;
29720;SDS011;23665;51.044;3.748;2022-10-14T01:14:13;40.87;;;24.07;;
29720;SDS011;23665;51.044;3.748;2022-10-14T01:16:48;37.70;;;22.47;;
29720;SDS011;23665;51.044;3.748;2022-10-14T01:22:25;39.63;;;24.73;;
29720;SDS011;23665;51.044;3.748;2022-10-14T01:30:22;44.73;;;26.10;;
29720;SDS011;23665;51.044;3.748;2022-10-14T01:36:14;37.93;;;25.93;;
29720;SDS011;23665;51.044;3.748;2022-10-14T01:38:37;39.77;;;25.83;;
29720;SDS011;23665;51.044;3.748;2022-10-14T01:41:31;42.00;;;23.97;;
29720;SDS011;23665;51.044;3.748;2022-10-14T01:44:05;42.33;;;24.87;;
29720;SDS011;23665;51.044;3.748;2022-10-14T01:46:36;45.97;;;26.10;;
29720;SDS011;23665;51.044;3.748;2022-10-14T01:49:09;40.37;;;24.97;;
29720;SDS011;23665;51.044;3.748;2022-10-14T01:51:39;42.83;;;26.27;;
29720;SDS011;23665;51.044;3.748;2022-10-14T01:54:14;39.47;;;25.60;;
29720;SDS011;23665;51.044;3.748;2022-10-14T01:56:45;41.73;;;25.63;;
29720;SDS011;23665;51.044;3.748;2022-10-14T01:59:11;36.47;;;23.07;;
29720;SDS011;23665;51.044;3.748;2022-10-14T02:01:40;42.00;;;24.53;;
29720;SDS011;23665;51.044;3.748;2022-10-14T02:04:16;41.77;;;23.60;;
29720;SDS011;23665;51.044;3.748;2022-10-14T02:06:53;41.60;;;24.33;;
29720;SDS011;23665;51.044;3.748;2022-10-14T02:09:47;39.73;;;23.90;;
29720;SDS011;23665;51.044;3.748;2022-10-14T02:13:03;44.77;;;24.50;;
29720;SDS011;23665;51.044;3.748;2022-10-14T02:16:05;41.67;;;24.47;;
29720;SDS011;23665;51.044;3.748;2022-10-14T02:19:23;38.43;;;23.93;;
29720;SDS011;23665;51.044;3.748;2022-10-14T02:21:52;42.13;;;24.93;;
29720;SDS011;23665;51.044;3.748;2022-10-14T02:24:38;43.97;;;25.03;;
29720;SDS011;23665;51.044;3.748;2022-10-14T02:27:08;36.97;;;25.27;;
29720;SDS011;23665;51.044;3.748;2022-10-14T02:29:37;42.20;;;25.83;;
29720;SDS011;23665;51.044;3.748;2022-10-14T02:32:06;40.03;;;24.17;;
29720;SDS011;23665;51.044;3.748;2022-10-14T02:34:34;37.97;;;24.47;;
29720;SDS011;23665;51.044;3.748;2022-10-14T02:37:01;41.67;;;25.47;;
29720;SDS011;23665;51.044;3.748;2022-10-14T02:39:34;39.90;;;26.03;;
29720;SDS011;23665;51.044;3.748;2022-10-14T02:42:03;48.30;;;26.20;;
29720;SDS011;23665;51.044;3.748;2022-10-14T02:44:29;41.53;;;26.17;;
29720;SDS011;23665;51.044;3.748;2022-10-14T02:46:55;40.70;;;24.93;;
29720;SDS011;23665;51.044;3.748;2022-10-14T02:49:21;47.40;;;25.60;;
29720;SDS011;23665;51.044;3.748;2022-10-14T02:51:47;39.63;;;24.90;;
29720;SDS011;23665;51.044;3.748;2022-10-14T02:54:13;39.40;;;25.10;;
29720;SDS011;23665;51.044;3.748;2022-10-14T02:56:39;43.07;;;25.63;;
29720;SDS011;23665;51.044;3.748;2022-10-14T02:59:05;40.57;;;25.83;;
29720;SDS011;23665;51.044;3.748;2022-10-14T03:01:31;43.47;;;26.83;;
29720;SDS011;23665;51.044;3.748;2022-10-14T03:03:57;41.93;;;26.50;;
29720;SDS011;23665;51.044;3.748;2022-10-14T03:06:23;50.10;;;27.20;;
29720;SDS011;23665;51.044;3.748;2022-10-14T03:08:49;42.57;;;25.53;;
29720;SDS011;23665;51.044;3.748;2022-10-14T03:11:15;45.23;;;27.00;;
29720;SDS011;23665;51.044;3.748;2022-10-14T03:13:41;42.20;;;26.47;;
29720;SDS011;23665;51.044;3.748;2022-10-14T03:16:07;46.07;;;25.80;;
29720;SDS011;23665;51.044;3.748;2022-10-14T03:18:33;41.60;;;26.03;;
29720;SDS011;23665;51.044;3.748;2022-10-14T03:20:59;45.60;;;25.47;;
29720;SDS011;23665;51.044;3.748;2022-10-14T03:23:25;45.43;;;26.93;;
29720;SDS011;23665;51.044;3.748;2022-10-14T03:25:51;43.80;;;26.13;;
29720;SDS011;23665;51.044;3.748;2022-10-14T03:28:16;43.13;;;24.67;;
29720;SDS011;23665;51.044;3.748;2022-10-14T03:30:42;40.07;;;25.23;;
29720;SDS011;23665;51.044;3.748;2022-10-14T03:33:09;42.43;;;24.27;;
29720;SDS011;23665;51.044;3.748;2022-10-14T03:35:35;41.33;;;26.57;;
29720;SDS011;23665;51.044;3.748;2022-10-14T03:38:02;40.63;;;24.50;;
29720;SDS011;23665;51.044;3.748;2022-10-14T03:40:29;43.13;;;25.47;;
29720;SDS011;23665;51.044;3.748;2022-10-14T03:42:59;42.50;;;25.83;;
29720;SDS011;23665;51.044;3.748;2022-10-14T03:45:25;42.27;;;24.93;;
29720;SDS011;23665;51.044;3.748;2022-10-14T03:47:53;48.07;;;25.83;;
29720;SDS011;23665;51.044;3.748;2022-10-14T03:50:19;45.70;;;26.70;;
29720;SDS011;23665;51.044;3.748;2022-10-14T03:52:45;46.87;;;24.90;;
29720;SDS011;23665;51.044;3.748;2022-10-14T03:55:11;42.20;;;24.97;;
29720;SDS011;23665;51.044;3.748;2022-10-14T03:57:37;47.60;;;23.67;;
29720;SDS011;23665;51.044;3.748;2022-10-14T04:00:04;46.63;;;24.97;;
29720;SDS011;23665;51.044;3.748;2022-10-14T04:02:30;46.33;;;24.50;;
29720;SDS011;23665;51.044;3.748;2022-10-14T04:04:56;42.43;;;23.93;;
29720;SDS011;23665;51.044;3.748;2022-10-14T04:07:22;40.87;;;23.37;;
29720;SDS011;23665;51.044;3.748;2022-10-14T04:09:48;39.00;;;22.33;;
29720;SDS011;23665;51.044;3.748;2022-10-14T04:12:14;37.17;;;20.23;;
29720;SDS011;23665;51.044;3.748;2022-10-14T04:14:40;39.67;;;21.90;;
29720;SDS011;23665;51.044;3.748;2022-10-14T04:17:06;38.87;;;23.13;;
29720;SDS011;23665;51.044;3.748;2022-10-14T04:19:32;40.00;;;21.87;;
29720;SDS011;23665;51.044;3.748;2022-10-14T04:21:57;39.17;;;21.17;;
29720;SDS011;23665;51.044;3.748;2022-10-14T04:24:23;36.20;;;20.50;;
29720;SDS011;23665;51.044;3.748;2022-10-14T04:26:49;37.10;;;20.60;;
29720;SDS011;23665;51.044;3.748;2022-10-14T04:29:16;37.10;;;21.17;;
29720;SDS011;23665;51.044;3.748;2022-10-14T04:31:42;36.03;;;20.67;;
29720;SDS011;23665;51.044;3.748;2022-10-14T04:34:08;37.30;;;20.57;;
29720;SDS011;23665;51.044;3.748;2022-10-14T04:36:35;41.00;;;20.50;;
29720;SDS011;23665;51.044;3.748;2022-10-14T04:39:01;33.00;;;20.00;;
29720;SDS011;23665;51.044;3.748;2022-10-14T04:41:27;35.67;;;19.60;;
29720;SDS011;23665;51.044;3.748;2022-10-14T04:43:52;39.87;;;22.33;;
29720;SDS011;23665;51.044;3.748;2022-10-14T04:46:19;40.30;;;20.63;;
29720;SDS011;23665;51.044;3.748;2022-10-14T04:48:48;40.73;;;21.47;;
29720;SDS011;23665;51.044;3.748;2022-10-14T04:51:14;41.00;;;21.60;;
29720;SDS011;23665;51.044;3.748;2022-10-14T04:53:41;43.00;;;21.67;;
29720;SDS011;23665;51.044;3.748;2022-10-14T04:56:07;41.40;;;22.37;;
29720;SDS011;23665;51.044;3.748;2022-10-14T04:58:32;42.23;;;22.90;;
29720;SDS011;23665;51.044;3.748;2022-10-14T05:00:58;50.87;;;24.03;;
29720;SDS011;23665;51.044;3.748;2022-10-14T05:03:24;44.27;;;22.33;;
29720;SDS011;23665;51.044;3.748;2022-10-14T05:05:50;44.07;;;22.07;;
29720;SDS011;23665;51.044;3.748;2022-10-14T05:08:16;44.80;;;23.23;;
29720;SDS011;23665;51.044;3.748;2022-10-14T05:10:42;37.67;;;21.67;;
29720;SDS011;23665;51.044;3.748;2022-10-14T05:13:08;52.37;;;28.03;;
29720;SDS011;23665;51.044;3.748;2022-10-14T05:15:34;45.90;;;23.30;;
29720;SDS011;23665;51.044;3.748;2022-10-14T05:18:00;46.10;;;21.40;;
29720;SDS011;23665;51.044;3.748;2022-10-14T05:20:25;47.70;;;22.90;;
29720;SDS011;23665;51.044;3.748;2022-10-14T05:22:51;43.80;;;21.50;;
29720;SDS011;23665;51.044;3.748;2022-10-14T05:25:18;74.30;;;24.17;;
29720;SDS011;23665;51.044;3.748;2022-10-14T05:27:44;43.73;;;19.93;;
29720;SDS011;23665;51.044;3.748;2022-10-14T05:30:10;206.83;;;39.67;;
29720;SDS011;23665;51.044;3.748;2022-10-14T05:32:36;520.13;;;74.30;;
29720;SDS011;23665;51.044;3.748;2022-10-14T05:35:02;165.80;;;37.13;;
29720;SDS011;23665;51.044;3.748;2022-10-14T05:37:28;58.23;;;22.80;;
29720;SDS011;23665;51.044;3.748;2022-10-14T05:39:54;61.53;;;24.17;;
29720;SDS011;23665;51.044;3.748;2022-10-14T05:42:20;69.27;;;25.13;;
29720;SDS011;23665;51.044;3.748;2022-10-14T13:26:54;20.20;;;18.00;;
29720;SDS011;23665;51.044;3.748;2022-10-14T13:32:31;20.83;;;16.37;;
29720;SDS011;23665;51.044;3.748;2022-10-14T13:43:01;20.77;;;15.23;;
29720;SDS011;23665;51.044;3.748;2022-10-14T13:45:38;20.30;;;16.27;;
29720;SDS011;23665;51.044;3.748;2022-10-14T13:48:12;20.60;;;16.13;;
29720;SDS011;23665;51.044;3.748;2022-10-14T13:50:41;19.60;;;15.57;;
29720;SDS011;23665;51.044;3.748;2022-10-14T13:53:15;20.90;;;15.93;;
29720;SDS011;23665;51.044;3.748;2022-10-14T13:55:45;20.27;;;14.40;;
29720;SDS011;23665;51.044;3.748;2022-10-14T13:58:19;18.97;;;15.73;;
29720;SDS011;23665;51.044;3.748;2022-10-14T14:00:51;19.63;;;16.10;;
29720;SDS011;23665;51.044;3.748;2022-10-14T14:03:35;20.23;;;16.23;;
29720;SDS011;23665;51.044;3.748;2022-10-14T14:06:14;21.37;;;17.13;;
29720;SDS011;23665;51.044;3.748;2022-10-14T14:11:32;23.67;;;16.70;;
29720;SDS011;23665;51.044;3.748;2022-10-14T14:14:04;21.77;;;16.37;;
29720;SDS011;23665;51.044;3.748;2022-10-14T14:16:33;21.30;;;16.43;;
29720;SDS011;23665;51.044;3.748;2022-10-14T14:19:02;15.70;;;13.60;;
29720;SDS011;23665;51.044;3.748;2022-10-14T14:21:29;17.30;;;14.60;;
29720;SDS011;23665;51.044;3.748;2022-10-14T14:23:55;17.73;;;14.20;;
29720;SDS011;23665;51.044;3.748;2022-10-14T14:26:25;16.27;;;13.63;;
29720;SDS011;23665;51.044;3.748;2022-10-14T14:29:02;17.57;;;14.07;;
29720;SDS011;23665;51.044;3.748;2022-10-14T14:31:38;18.50;;;14.20;;
29720;SDS011;23665;51.044;3.748;2022-10-14T14:34:04;16.47;;;13.77;;
29720;SDS011;23665;51.044;3.748;2022-10-14T14:36:30;18.27;;;13.40;;
29720;SDS011;23665;51.044;3.748;2022-10-14T14:38:57;21.23;;;15.97;;
29720;SDS011;23665;51.044;3.748;2022-10-14T14:41:26;18.63;;;15.83;;
29720;SDS011;23665;51.044;3.748;2022-10-14T14:43:58;19.27;;;16.57;;
29720;SDS011;23665;51.044;3.748;2022-10-14T14:46:37;21.73;;;15.63;;
29720;SDS011;23665;51.044;3.748;2022-10-14T14:49:04;19.67;;;16.10;;
29720;SDS011;23665;51.044;3.748;2022-10-14T14:51:38;20.77;;;15.20;;
29720;SDS011;23665;51.044;3.748;2022-10-14T14:54:11;20.63;;;15.63;;
29720;SDS011;23665;51.044;3.748;2022-10-14T14:56:48;21.80;;;15.30;;
29720;SDS011;23665;51.044;3.748;2022-10-14T15:02:02;19.73;;;13.97;;
29720;SDS011;23665;51.044;3.748;2022-10-14T15:04:36;15.40;;;10.90;;
29720;SDS011;23665;51.044;3.748;2022-10-14T15:07:03;13.70;;;10.33;;
29720;SDS011;23665;51.044;3.748;2022-10-14T15:09:45;14.13;;;10.57;;
29720;SDS011;23665;51.044;3.748;2022-10-14T15:12:29;13.00;;;10.90;;
29720;SDS011;23665;51.044;3.748;2022-10-14T15:15:01;15.70;;;9.63;;
29720;SDS011;23665;51.044;3.748;2022-10-14T15:17:33;14.10;;;9.30;;
29720;SDS011;23665;51.044;3.748;2022-10-14T15:22:35;13.13;;;9.23;;
29720;SDS011;23665;51.044;3.748;2022-10-14T15:25:03;14.63;;;9.43;;
29720;SDS011;23665;51.044;3.748;2022-10-14T15:33:34;13.33;;;9.53;;
29720;SDS011;23665;51.044;3.748;2022-10-14T15:35:41;11.40;;;9.00;;
29720;SDS011;23665;51.044;3.748;2022-10-14T15:38:10;11.60;;;8.47;;
29720;SDS011;23665;51.044;3.748;2022-10-14T15:40:45;17.23;;;8.80;;
29720;SDS011;23665;51.044;3.748;2022-10-14T15:43:17;11.77;;;8.70;;
29720;SDS011;23665;51.044;3.748;2022-10-14T15:45:46;12.33;;;8.70;;
29720;SDS011;23665;51.044;3.748;2022-10-14T15:48:32;14.00;;;8.50;;
29720;SDS011;23665;51.044;3.748;2022-10-14T15:50:58;13.10;;;9.63;;
29720;SDS011;23665;51.044;3.748;2022-10-14T15:53:24;13.40;;;9.20;;
29720;SDS011;23665;51.044;3.748;2022-10-14T15:55:53;13.13;;;8.97;;
29720;SDS011;23665;51.044;3.748;2022-10-14T15:58:19;12.53;;;9.00;;
29720;SDS011;23665;51.044;3.748;2022-10-14T16:00:45;16.70;;;9.50;;
29720;SDS011;23665;51.044;3.748;2022-10-14T16:03:11;12.40;;;9.10;;
29720;SDS011;23665;51.044;3.748;2022-10-14T16:05:41;16.30;;;8.90;;
29720;SDS011;23665;51.044;3.748;2022-10-14T16:08:11;14.50;;;8.50;;
29720;SDS011;23665;51.044;3.748;2022-10-14T16:10:43;16.97;;;9.13;;
29720;SDS011;23665;51.044;3.748;2022-10-14T16:13:11;12.57;;;8.47;;
29720;SDS011;23665;51.044;3.748;2022-10-14T16:18:14;20.13;;;8.63;;
29720;SDS011;23665;51.044;3.748;2022-10-14T16:20:40;14.33;;;9.30;;
29720;SDS011;23665;51.044;3.748;2022-10-14T16:23:06;17.10;;;9.93;;
29720;SDS011;23665;51.044;3.748;2022-10-14T16:25:36;16.90;;;9.23;;
29720;SDS011;23665;51.044;3.748;2022-10-14T16:28:07;23.47;;;9.63;;
29720;SDS011;23665;51.044;3.748;2022-10-14T16:30:34;15.47;;;9.87;;
29720;SDS011;23665;51.044;3.748;2022-10-14T16:33:00;15.40;;;9.90;;
29720;SDS011;23665;51.044;3.748;2022-10-14T16:35:27;18.53;;;10.20;;
29720;SDS011;23665;51.044;3.748;2022-10-14T16:37:53;17.20;;;10.20;;
29720;SDS011;23665;51.044;3.748;2022-10-14T16:40:20;14.20;;;10.33;;
29720;SDS011;23665;51.044;3.748;2022-10-14T16:42:48;15.97;;;10.33;;
29720;SDS011;23665;51.044;3.748;2022-10-14T16:45:14;18.30;;;10.80;;
29720;SDS011;23665;51.044;3.748;2022-10-14T16:47:39;17.77;;;9.83;;
29720;SDS011;23665;51.044;3.748;2022-10-14T16:50:06;20.47;;;10.17;;
29720;SDS011;23665;51.044;3.748;2022-10-14T16:52:33;14.40;;;10.87;;
29720;SDS011;23665;51.044;3.748;2022-10-14T16:55:18;14.80;;;9.90;;
29720;SDS011;23665;51.044;3.748;2022-10-14T16:57:44;18.43;;;11.03;;
29720;SDS011;23665;51.044;3.748;2022-10-14T17:00:11;14.87;;;10.73;;
29720;SDS011;23665;51.044;3.748;2022-10-14T17:02:38;17.17;;;10.77;;
29720;SDS011;23665;51.044;3.748;2022-10-14T17:05:03;15.10;;;9.70;;
29720;SDS011;23665;51.044;3.748;2022-10-14T17:07:30;13.83;;;10.70;;
29720;SDS011;23665;51.044;3.748;2022-10-14T17:09:57;17.70;;;10.00;;
29720;SDS011;23665;51.044;3.748;2022-10-14T17:12:23;14.33;;;10.20;;
29720;SDS011;23665;51.044;3.748;2022-10-14T17:14:50;16.87;;;10.93;;
29720;SDS011;23665;51.044;3.748;2022-10-14T17:17:16;15.17;;;10.47;;
29720;SDS011;23665;51.044;3.748;2022-10-14T17:19:42;16.07;;;11.20;;
29720;SDS011;23665;51.044;3.748;2022-10-14T17:22:09;16.27;;;11.93;;
29720;SDS011;23665;51.044;3.748;2022-10-14T17:24:35;25.43;;;12.23;;
29720;SDS011;23665;51.044;3.748;2022-10-14T17:27:01;20.60;;;11.90;;
29720;SDS011;23665;51.044;3.748;2022-10-14T17:29:29;17.73;;;12.87;;
29720;SDS011;23665;51.044;3.748;2022-10-14T17:31:55;19.73;;;11.93;;
29720;SDS011;23665;51.044;3.748;2022-10-14T17:34:22;33.70;;;14.30;;
29720;SDS011;23665;51.044;3.748;2022-10-14T17:36:48;19.27;;;13.50;;
29720;SDS011;23665;51.044;3.748;2022-10-14T17:39:14;19.40;;;13.27;;
29720;SDS011;23665;51.044;3.748;2022-10-14T17:41:43;21.23;;;13.90;;
29720;SDS011;23665;51.044;3.748;2022-10-14T17:44:10;20.63;;;13.20;;
29720;SDS011;23665;51.044;3.748;2022-10-14T17:46:37;18.57;;;13.20;;
29720;SDS011;23665;51.044;3.748;2022-10-14T17:49:04;20.00;;;12.17;;
29720;SDS011;23665;51.044;3.748;2022-10-14T17:51:34;29.03;;;12.37;;
29720;SDS011;23665;51.044;3.748;2022-10-14T17:54:01;29.10;;;13.37;;
29720;SDS011;23665;51.044;3.748;2022-10-14T17:56:30;23.17;;;14.23;;
29720;SDS011;23665;51.044;3.748;2022-10-14T17:58:59;22.43;;;14.30;;
29720;SDS011;23665;51.044;3.748;2022-10-14T18:01:28;19.83;;;14.30;;
29720;SDS011;23665;51.044;3.748;2022-10-14T18:03:55;21.10;;;14.53;;
29720;SDS011;23665;51.044;3.748;2022-10-14T18:06:26;24.07;;;16.50;;
29720;SDS011;23665;51.044;3.748;2022-10-14T18:08:58;25.87;;;15.40;;
29720;SDS011;23665;51.044;3.748;2022-10-14T18:11:26;29.70;;;14.73;;
29720;SDS011;23665;51.044;3.748;2022-10-14T18:13:55;21.50;;;13.43;;
29720;SDS011;23665;51.044;3.748;2022-10-14T18:16:26;29.17;;;13.80;;
29720;SDS011;23665;51.044;3.748;2022-10-14T18:18:58;22.87;;;14.07;;
29720;SDS011;23665;51.044;3.748;2022-10-14T18:21:25;22.57;;;14.63;;
29720;SDS011;23665;51.044;3.748;2022-10-14T18:23:51;21.77;;;14.10;;
29720;SDS011;23665;51.044;3.748;2022-10-14T18:26:19;25.07;;;13.47;;
29720;SDS011;23665;51.044;3.748;2022-10-14T18:28:46;21.07;;;13.13;;
29720;SDS011;23665;51.044;3.748;2022-10-14T18:31:18;21.27;;;12.33;;
29720;SDS011;23665;51.044;3.748;2022-10-14T18:33:45;24.20;;;13.60;;
29720;SDS011;23665;51.044;3.748;2022-10-14T18:36:14;21.77;;;13.87;;
29720;SDS011;23665;51.044;3.748;2022-10-14T18:38:45;20.47;;;14.73;;
29720;SDS011;23665;51.044;3.748;2022-10-14T18:41:23;21.03;;;14.70;;
29720;SDS011;23665;51.044;3.748;2022-10-14T18:43:50;27.63;;;16.27;;
29720;SDS011;23665;51.044;3.748;2022-10-14T18:46:17;21.67;;;15.57;;
29720;SDS011;23665;51.044;3.748;2022-10-14T18:48:45;22.23;;;16.77;;
29720;SDS011;23665;51.044;3.748;2022-10-14T18:51:13;22.97;;;15.93;;
29720;SDS011;23665;51.044;3.748;2022-10-14T18:53:41;23.83;;;16.03;;
29720;SDS011;23665;51.044;3.748;2022-10-14T18:56:15;30.90;;;18.13;;
29720;SDS011;23665;51.044;3.748;2022-10-14T18:58:44;29.63;;;19.10;;
29720;SDS011;23665;51.044;3.748;2022-10-14T19:01:13;26.97;;;17.77;;
29720;SDS011;23665;51.044;3.748;2022-10-14T19:03:40;24.17;;;16.97;;
29720;SDS011;23665;51.044;3.748;2022-10-14T19:06:10;24.50;;;15.90;;
29720;SDS011;23665;51.044;3.748;2022-10-14T19:08:38;24.70;;;16.80;;
29720;SDS011;23665;51.044;3.748;2022-10-14T19:11:09;30.07;;;18.90;;
29720;SDS011;23665;51.044;3.748;2022-10-14T19:13:44;32.07;;;20.83;;
29720;SDS011;23665;51.044;3.748;2022-10-14T19:16:25;30.47;;;19.97;;
29720;SDS011;23665;51.044;3.748;2022-10-14T19:18:53;27.17;;;19.13;;
29720;SDS011;23665;51.044;3.748;2022-10-14T19:21:24;29.97;;;19.77;;
29720;SDS011;23665;51.044;3.748;2022-10-14T19:23:54;32.40;;;20.47;;
29720;SDS011;23665;51.044;3.748;2022-10-14T19:26:22;26.90;;;19.63;;
29720;SDS011;23665;51.044;3.748;2022-10-14T19:28:49;33.13;;;19.20;;
29720;SDS011;23665;51.044;3.748;2022-10-14T19:31:20;27.97;;;18.90;;
29720;SDS011;23665;51.044;3.748;2022-10-14T19:33:49;28.87;;;19.40;;
29720;SDS011;23665;51.044;3.748;2022-10-14T19:36:18;28.70;;;18.40;;
29720;SDS011;23665;51.044;3.748;2022-10-14T19:38:50;28.50;;;19.40;;
29720;SDS011;23665;51.044;3.748;2022-10-14T19:41:21;28.80;;;18.33;;
29720;SDS011;23665;51.044;3.748;2022-10-14T19:43:48;28.67;;;18.33;;
29720;SDS011;23665;51.044;3.748;2022-10-14T19:46:17;32.03;;;19.03;;
29720;SDS011;23665;51.044;3.748;2022-10-14T19:48:47;24.60;;;18.60;;
29720;SDS011;23665;51.044;3.748;2022-10-14T19:51:14;26.23;;;18.97;;
29720;SDS011;23665;51.044;3.748;2022-10-14T19:53:42;25.90;;;17.90;;
29720;SDS011;23665;51.044;3.748;2022-10-14T19:56:09;27.37;;;19.67;;
29720;SDS011;23665;51.044;3.748;2022-10-14T19:58:36;32.93;;;19.77;;
29720;SDS011;23665;51.044;3.748;2022-10-14T20:01:13;24.03;;;18.37;;
29720;SDS011;23665;51.044;3.748;2022-10-14T20:03:40;27.80;;;17.37;;
29720;SDS011;23665;51.044;3.748;2022-10-14T20:06:08;28.47;;;19.10;;
29720;SDS011;23665;51.044;3.748;2022-10-14T20:08:35;24.87;;;18.53;;
29720;SDS011;23665;51.044;3.748;2022-10-14T20:11:07;32.33;;;18.93;;
29720;SDS011;23665;51.044;3.748;2022-10-14T20:13:35;26.10;;;17.33;;
29720;SDS011;23665;51.044;3.748;2022-10-14T20:16:04;25.20;;;17.80;;
29720;SDS011;23665;51.044;3.748;2022-10-14T20:18:32;26.97;;;15.83;;
29720;SDS011;23665;51.044;3.748;2022-10-14T20:20:59;29.97;;;16.07;;
29720;SDS011;23665;51.044;3.748;2022-10-14T20:23:26;21.90;;;15.27;;
29720;SDS011;23665;51.044;3.748;2022-10-14T20:25:57;27.50;;;14.10;;
29720;SDS011;23665;51.044;3.748;2022-10-14T20:28:24;17.70;;;13.30;;
29720;SDS011;23665;51.044;3.748;2022-10-14T20:30:51;17.17;;;12.63;;
29720;SDS011;23665;51.044;3.748;2022-10-14T20:33:22;16.33;;;11.87;;
29720;SDS011;23665;51.044;3.748;2022-10-14T20:35:58;17.77;;;12.37;;
29720;SDS011;23665;51.044;3.748;2022-10-14T20:38:25;18.67;;;12.37;;
29720;SDS011;23665;51.044;3.748;2022-10-14T20:40:53;20.33;;;13.63;;
29720;SDS011;23665;51.044;3.748;2022-10-14T20:43:20;17.50;;;12.50;;
29720;SDS011;23665;51.044;3.748;2022-10-14T20:45:47;18.53;;;11.97;;
29720;SDS011;23665;51.044;3.748;2022-10-14T20:48:13;22.87;;;12.97;;
29720;SDS011;23665;51.044;3.748;2022-10-14T20:50:40;21.67;;;12.27;;
29720;SDS011;23665;51.044;3.748;2022-10-14T20:53:06;20.30;;;12.13;;
29720;SDS011;23665;51.044;3.748;2022-10-14T20:55:35;19.53;;;12.50;;
29720;SDS011;23665;51.044;3.748;2022-10-14T20:58:01;16.10;;;11.97;;
29720;SDS011;23665;51.044;3.748;2022-10-14T21:00:27;18.27;;;12.67;;
29720;SDS011;23665;51.044;3.748;2022-10-14T21:02:53;20.27;;;11.80;;
29720;SDS011;23665;51.044;3.748;2022-10-14T21:05:20;21.70;;;11.83;;
29720;SDS011;23665;51.044;3.748;2022-10-14T21:07:46;17.07;;;12.17;;
29720;SDS011;23665;51.044;3.748;2022-10-14T21:10:11;16.97;;;12.87;;
29720;SDS011;23665;51.044;3.748;2022-10-14T21:12:37;18.00;;;11.70;;
29720;SDS011;23665;51.044;3.748;2022-10-14T21:15:03;16.73;;;11.63;;
29720;SDS011;23665;51.044;3.748;2022-10-14T21:17:30;18.30;;;12.37;;
29720;SDS011;23665;51.044;3.748;2022-10-14T21:19:55;14.17;;;10.90;;
29720;SDS011;23665;51.044;3.748;2022-10-14T21:22:21;17.37;;;12.10;;
29720;SDS011;23665;51.044;3.748;2022-10-14T21:24:47;14.63;;;12.10;;
29720;SDS011;23665;51.044;3.748;2022-10-14T21:27:13;17.67;;;11.67;;
29720;SDS011;23665;51.044;3.748;2022-10-14T21:29:39;19.60;;;13.23;;
29720;SDS011;23665;51.044;3.748;2022-10-14T21:32:05;18.47;;;12.20;;
29720;SDS011;23665;51.044;3.748;2022-10-14T21:34:31;17.27;;;12.23;;
29720;SDS011;23665;51.044;3.748;2022-10-14T21:36:57;15.90;;;11.70;;
29720;SDS011;23665;51.044;3.748;2022-10-14T21:39:22;18.40;;;11.40;;
29720;SDS011;23665;51.044;3.748;2022-10-14T21:41:51;21.00;;;12.27;;
29720;SDS011;23665;51.044;3.748;2022-10-14T21:44:18;17.90;;;11.13;;
29720;SDS011;23665;51.044;3.748;2022-10-14T21:46:45;16.03;;;11.40;;
29720;SDS011;23665;51.044;3.748;2022-10-14T21:49:11;15.80;;;11.27;;
29720;SDS011;23665;51.044;3.748;2022-10-14T21:51:37;19.27;;;12.20;;
29720;SDS011;23665;51.044;3.748;2022-10-14T21:54:03;19.57;;;12.73;;
29720;SDS011;23665;51.044;3.748;2022-10-14T21:56:29;18.33;;;13.17;;
29720;SDS011;23665;51.044;3.748;2022-10-14T21:58:55;17.10;;;11.97;;
29720;SDS011;23665;51.044;3.748;2022-10-14T22:01:23;18.87;;;13.67;;
29720;SDS011;23665;51.044;3.748;2022-10-14T22:03:55;15.53;;;12.13;;
29720;SDS011;23665;51.044;3.748;2022-10-14T22:06:22;15.90;;;12.57;;
29720;SDS011;23665;51.044;3.748;2022-10-14T22:08:48;19.07;;;14.50;;
29720;SDS011;23665;51.044;3.748;2022-10-14T22:11:23;20.13;;;13.70;;
29720;SDS011;23665;51.044;3.748;2022-10-14T22:13:54;18.60;;;13.23;;
29720;SDS011;23665;51.044;3.748;2022-10-14T22:16:21;20.47;;;14.67;;
29720;SDS011;23665;51.044;3.748;2022-10-14T22:18:48;19.27;;;14.33;;
29720;SDS011;23665;51.044;3.748;2022-10-14T22:21:16;19.43;;;14.27;;
29720;SDS011;23665;51.044;3.748;2022-10-14T22:23:43;21.73;;;13.20;;
29720;SDS011;23665;51.044;3.748;2022-10-14T22:26:10;20.93;;;13.73;;
29720;SDS011;23665;51.044;3.748;2022-10-14T22:28:41;19.83;;;13.90;;
29720;SDS011;23665;51.044;3.748;2022-10-14T22:31:08;21.10;;;13.77;;
29720;SDS011;23665;51.044;3.748;2022-10-14T22:33:39;17.80;;;13.50;;
29720;SDS011;23665;51.044;3.748;2022-10-14T22:36:13;20.13;;;14.17;;
29720;SDS011;23665;51.044;3.748;2022-10-14T22:38:42;18.90;;;15.03;;
29720;SDS011;23665;51.044;3.748;2022-10-14T22:41:08;19.23;;;13.60;;
29720;SDS011;23665;51.044;3.748;2022-10-14T22:43:35;19.63;;;13.00;;
29720;SDS011;23665;51.044;3.748;2022-10-14T22:46:06;20.00;;;14.03;;
29720;SDS011;23665;51.044;3.748;2022-10-14T22:48:35;19.57;;;13.60;;
29720;SDS011;23665;51.044;3.748;2022-10-14T22:51:02;21.30;;;14.63;;
29720;SDS011;23665;51.044;3.748;2022-10-14T22:53:32;19.43;;;14.27;;
29720;SDS011;23665;51.044;3.748;2022-10-14T22:55:58;15.90;;;13.03;;
29720;SDS011;23665;51.044;3.748;2022-10-14T22:58:28;16.63;;;12.23;;
29720;SDS011;23665;51.044;3.748;2022-10-14T23:00:54;18.50;;;12.93;;
29720;SDS011;23665;51.044;3.748;2022-10-14T23:03:21;21.70;;;13.10;;
29720;SDS011;23665;51.044;3.748;2022-10-14T23:05:47;17.73;;;11.73;;